sensor_id;sensor_type;location;lat;lon;timestamp;pressure;altitude;pressure_sealevel;temperature;humidity
45441;BME280;31189;38.790;-77.084;2022-11-20T00:02:23;101682.64;;;6.64;34.64
45441;BME280;31189;38.790;-77.084;2022-11-20T00:04:51;101678.29;;;6.14;35.15
45441;BME280;31189;38.790;-77.084;2022-11-20T00:07:18;101675.09;;;6.46;34.96
45441;BME280;31189;38.790;-77.084;2022-11-20T00:09:46;101677.75;;;6.53;35.04
45441;BME280;31189;38.790;-77.084;2022-11-20T00:12:14;101681.44;;;6.43;35.11
45441;BME280;31189;38.790;-77.084;2022-11-20T00:14:42;101683.41;;;6.59;35.10
45441;BME280;31189;38.790;-77.084;2022-11-20T00:17:09;101685.21;;;5.95;36.22
45441;BME280;31189;38.790;-77.084;2022-11-20T00:19:36;101682.96;;;6.38;35.90
45441;BME280;31189;38.790;-77.084;2022-11-20T00:22:04;101684.36;;;6.50;35.82
45441;BME280;31189;38.790;-77.084;2022-11-20T00:24:32;101683.84;;;6.15;36.36
45441;BME280;31189;38.790;-77.084;2022-11-20T00:27:00;101681.21;;;5.44;36.67
45441;BME280;31189;38.790;-77.084;2022-11-20T00:29:27;101674.53;;;6.22;36.06
45441;BME280;31189;38.790;-77.084;2022-11-20T00:31:57;101674.41;;;5.48;37.36
45441;BME280;31189;38.790;-77.084;2022-11-20T00:34:25;101669.60;;;5.27;37.81
45441;BME280;31189;38.790;-77.084;2022-11-20T00:36:52;101669.37;;;5.54;37.49
45441;BME280;31189;38.790;-77.084;2022-11-20T00:39:20;101671.50;;;5.42;37.51
45441;BME280;31189;38.790;-77.084;2022-11-20T00:41:47;101665.48;;;5.34;37.98
45441;BME280;31189;38.790;-77.084;2022-11-20T00:44:15;101663.84;;;5.37;37.86
45441;BME280;31189;38.790;-77.084;2022-11-20T00:46:43;101669.66;;;5.31;38.30
45441;BME280;31189;38.790;-77.084;2022-11-20T00:49:11;101671.53;;;5.54;37.85
45441;BME280;31189;38.790;-77.084;2022-11-20T00:51:39;101661.06;;;5.67;37.77
45441;BME280;31189;38.790;-77.084;2022-11-20T00:54:07;101656.96;;;5.38;38.11
45441;BME280;31189;38.790;-77.084;2022-11-20T00:56:35;101655.64;;;5.33;38.69
45441;BME280;31189;38.790;-77.084;2022-11-20T00:59:04;101655.60;;;4.99;38.78
45441;BME280;31189;38.790;-77.084;2022-11-20T01:01:33;101652.70;;;5.25;39.20
45441;BME280;31189;38.790;-77.084;2022-11-20T01:04:02;101661.95;;;4.86;39.30
45441;BME280;31189;38.790;-77.084;2022-11-20T01:06:38;101658.01;;;5.22;38.75
45441;BME280;31189;38.790;-77.084;2022-11-20T01:09:14;101651.39;;;5.47;38.84
45441;BME280;31189;38.790;-77.084;2022-11-20T01:11:47;101646.16;;;5.71;38.06
45441;BME280;31189;38.790;-77.084;2022-11-20T01:14:20;101644.90;;;5.40;38.70
45441;BME280;31189;38.790;-77.084;2022-11-20T01:16:58;101645.37;;;5.43;39.59
45441;BME280;31189;38.790;-77.084;2022-11-20T01:19:32;101644.34;;;5.28;39.54
45441;BME280;31189;38.790;-77.084;2022-11-20T01:22:04;101638.10;;;5.44;38.57
45441;BME280;31189;38.790;-77.084;2022-11-20T01:24:38;101640.20;;;5.27;38.57
45441;BME280;31189;38.790;-77.084;2022-11-20T01:27:16;101639.38;;;5.54;40.04
45441;BME280;31189;38.790;-77.084;2022-11-20T01:29:49;101633.96;;;5.48;38.86
45441;BME280;31189;38.790;-77.084;2022-11-20T01:32:22;101629.97;;;5.32;38.69
45441;BME280;31189;38.790;-77.084;2022-11-20T01:34:54;101623.69;;;5.55;38.43
45441;BME280;31189;38.790;-77.084;2022-11-20T01:37:32;101613.65;;;5.91;39.08
45441;BME280;31189;38.790;-77.084;2022-11-20T01:40:07;101603.60;;;5.32;38.52
45441;BME280;31189;38.790;-77.084;2022-11-20T01:42:35;101599.02;;;5.51;39.11
45441;BME280;31189;38.790;-77.084;2022-11-20T01:45:56;101600.03;;;4.43;39.90
45441;BME280;31189;38.790;-77.084;2022-11-20T01:48:40;101595.66;;;5.04;39.90
45441;BME280;31189;38.790;-77.084;2022-11-20T01:51:20;101594.63;;;4.09;40.94
45441;BME280;31189;38.790;-77.084;2022-11-20T01:53:49;101592.74;;;5.43;39.34
45441;BME280;31189;38.790;-77.084;2022-11-20T01:56:19;101595.32;;;4.76;40.06
45441;BME280;31189;38.790;-77.084;2022-11-20T01:58:50;101596.78;;;4.99;40.13
45441;BME280;31189;38.790;-77.084;2022-11-20T02:01:20;101599.19;;;5.08;40.03
45441;BME280;31189;38.790;-77.084;2022-11-20T02:03:50;101598.18;;;5.44;39.76
45441;BME280;31189;38.790;-77.084;2022-11-20T02:06:22;101600.74;;;4.97;40.22
45441;BME280;31189;38.790;-77.084;2022-11-20T02:08:51;101602.95;;;5.03;39.88
45441;BME280;31189;38.790;-77.084;2022-11-20T02:11:20;101599.26;;;5.04;40.05
45441;BME280;31189;38.790;-77.084;2022-11-20T02:13:48;101600.44;;;5.06;39.93
45441;BME280;31189;38.790;-77.084;2022-11-20T02:16:21;101601.24;;;5.04;39.72
45441;BME280;31189;38.790;-77.084;2022-11-20T02:18:50;101604.17;;;4.74;39.94
45441;BME280;31189;38.790;-77.084;2022-11-20T02:21:28;101602.57;;;5.60;39.26
45441;BME280;31189;38.790;-77.084;2022-11-20T02:24:02;101603.90;;;5.02;39.14
45441;BME280;31189;38.790;-77.084;2022-11-20T02:26:33;101612.12;;;4.15;41.00
45441;BME280;31189;38.790;-77.084;2022-11-20T02:29:03;101603.30;;;3.79;41.54
45441;BME280;31189;38.790;-77.084;2022-11-20T02:31:36;101598.00;;;4.74;40.56
45441;BME280;31189;38.790;-77.084;2022-11-20T02:34:05;101596.64;;;4.40;40.74
45441;BME280;31189;38.790;-77.084;2022-11-20T02:36:33;101603.25;;;4.38;40.89
45441;BME280;31189;38.790;-77.084;2022-11-20T02:39:01;101602.97;;;4.69;40.23
45441;BME280;31189;38.790;-77.084;2022-11-20T02:41:34;101592.13;;;4.12;41.01
45441;BME280;31189;38.790;-77.084;2022-11-20T02:44:02;101585.36;;;3.78;41.93
45441;BME280;31189;38.790;-77.084;2022-11-20T02:46:31;101587.94;;;3.75;43.37
45441;BME280;31189;38.790;-77.084;2022-11-20T02:49:01;101585.50;;;4.14;42.14
45441;BME280;31189;38.790;-77.084;2022-11-20T02:51:29;101581.86;;;4.57;41.78
45441;BME280;31189;38.790;-77.084;2022-11-20T02:53:58;101578.06;;;4.47;42.43
45441;BME280;31189;38.790;-77.084;2022-11-20T02:56:26;101578.42;;;4.26;42.22
45441;BME280;31189;38.790;-77.084;2022-11-20T02:58:54;101583.27;;;4.54;41.75
45441;BME280;31189;38.790;-77.084;2022-11-20T03:01:21;101571.93;;;4.79;41.39
45441;BME280;31189;38.790;-77.084;2022-11-20T03:03:51;101570.31;;;4.12;42.05
45441;BME280;31189;38.790;-77.084;2022-11-20T03:06:23;101559.67;;;4.64;41.66
45441;BME280;31189;38.790;-77.084;2022-11-20T03:08:51;101554.79;;;4.70;40.70
45441;BME280;31189;38.790;-77.084;2022-11-20T03:11:25;101555.51;;;4.75;40.94
45441;BME280;31189;38.790;-77.084;2022-11-20T03:14:03;101555.34;;;4.44;41.15
45441;BME280;31189;38.790;-77.084;2022-11-20T03:16:37;101546.35;;;4.69;41.40
45441;BME280;31189;38.790;-77.084;2022-11-20T03:19:11;101546.76;;;3.07;44.01
45441;BME280;31189;38.790;-77.084;2022-11-20T03:21:39;101545.12;;;4.74;41.28
45441;BME280;31189;38.790;-77.084;2022-11-20T03:24:08;101543.45;;;4.59;40.66
45441;BME280;31189;38.790;-77.084;2022-11-20T03:26:36;101546.68;;;4.22;41.60
45441;BME280;31189;38.790;-77.084;2022-11-20T03:29:04;101547.32;;;4.38;41.78
45441;BME280;31189;38.790;-77.084;2022-11-20T03:31:34;101542.07;;;2.66;43.96
45441;BME280;31189;38.790;-77.084;2022-11-20T03:34:04;101543.68;;;4.29;42.36
45441;BME280;31189;38.790;-77.084;2022-11-20T03:36:33;101539.24;;;4.50;42.20
45441;BME280;31189;38.790;-77.084;2022-11-20T03:39:00;101535.64;;;4.50;41.87
45441;BME280;31189;38.790;-77.084;2022-11-20T03:41:30;101533.16;;;4.76;42.24
45441;BME280;31189;38.790;-77.084;2022-11-20T03:44:01;101528.28;;;4.35;41.79
45441;BME280;31189;38.790;-77.084;2022-11-20T03:46:30;101522.96;;;4.02;42.85
45441;BME280;31189;38.790;-77.084;2022-11-20T03:48:58;101523.54;;;3.64;43.31
45441;BME280;31189;38.790;-77.084;2022-11-20T03:51:27;101528.81;;;3.98;43.59
45441;BME280;31189;38.790;-77.084;2022-11-20T03:53:58;101521.79;;;4.08;43.26
45441;BME280;31189;38.790;-77.084;2022-11-20T03:56:28;101517.35;;;3.68;43.86
45441;BME280;31189;38.790;-77.084;2022-11-20T03:58:58;101513.90;;;3.78;43.84
45441;BME280;31189;38.790;-77.084;2022-11-20T04:01:28;101512.98;;;3.66;44.41
45441;BME280;31189;38.790;-77.084;2022-11-20T04:03:57;101511.52;;;3.23;44.50
45441;BME280;31189;38.790;-77.084;2022-11-20T04:06:32;101510.88;;;4.40;43.39
45441;BME280;31189;38.790;-77.084;2022-11-20T04:09:01;101509.23;;;4.02;42.99
45441;BME280;31189;38.790;-77.084;2022-11-20T04:11:30;101505.59;;;3.87;44.15
45441;BME280;31189;38.790;-77.084;2022-11-20T04:14:00;101501.42;;;2.73;45.85
45441;BME280;31189;38.790;-77.084;2022-11-20T04:16:30;101488.85;;;2.18;47.49
45441;BME280;31189;38.790;-77.084;2022-11-20T04:19:00;101483.44;;;3.63;45.06
45441;BME280;31189;38.790;-77.084;2022-11-20T04:21:29;101485.05;;;3.15;46.10
45441;BME280;31189;38.790;-77.084;2022-11-20T04:23:57;101487.92;;;2.67;47.02
45441;BME280;31189;38.790;-77.084;2022-11-20T04:26:27;101488.20;;;3.70;45.48
45441;BME280;31189;38.790;-77.084;2022-11-20T04:28:57;101490.33;;;3.83;44.68
45441;BME280;31189;38.790;-77.084;2022-11-20T04:31:27;101486.00;;;3.11;46.09
45441;BME280;31189;38.790;-77.084;2022-11-20T04:33:59;101483.10;;;3.49;45.99
45441;BME280;31189;38.790;-77.084;2022-11-20T04:36:28;101488.17;;;4.32;44.11
45441;BME280;31189;38.790;-77.084;2022-11-20T04:38:57;101486.70;;;3.26;45.23
45441;BME280;31189;38.790;-77.084;2022-11-20T04:41:27;101484.06;;;4.19;44.00
45441;BME280;31189;38.790;-77.084;2022-11-20T04:43:58;101484.74;;;4.00;44.70
45441;BME280;31189;38.790;-77.084;2022-11-20T04:46:27;101485.42;;;4.00;43.65
45441;BME280;31189;38.790;-77.084;2022-11-20T04:48:56;101488.91;;;3.52;44.22
45441;BME280;31189;38.790;-77.084;2022-11-20T04:51:24;101494.72;;;3.60;44.69
45441;BME280;31189;38.790;-77.084;2022-11-20T04:53:52;101488.45;;;3.71;45.28
45441;BME280;31189;38.790;-77.084;2022-11-20T04:56:20;101484.23;;;3.34;45.72
45441;BME280;31189;38.790;-77.084;2022-11-20T04:58:48;101474.43;;;4.01;44.67
45441;BME280;31189;38.790;-77.084;2022-11-20T05:01:18;101472.67;;;4.19;43.99
45441;BME280;31189;38.790;-77.084;2022-11-20T05:03:46;101483.46;;;3.73;42.65
45441;BME280;31189;38.790;-77.084;2022-11-20T05:06:18;101489.31;;;3.04;43.70
45441;BME280;31189;38.790;-77.084;2022-11-20T05:08:46;101494.21;;;4.41;42.88
45441;BME280;31189;38.790;-77.084;2022-11-20T05:11:16;101494.74;;;3.68;43.35
45441;BME280;31189;38.790;-77.084;2022-11-20T05:13:45;101499.61;;;3.88;43.50
45441;BME280;31189;38.790;-77.084;2022-11-20T05:16:15;101503.47;;;3.53;44.31
45441;BME280;31189;38.790;-77.084;2022-11-20T05:18:43;101507.57;;;3.88;44.52
45441;BME280;31189;38.790;-77.084;2022-11-20T05:21:12;101509.71;;;3.60;43.41
45441;BME280;31189;38.790;-77.084;2022-11-20T05:23:40;101512.17;;;2.97;45.02
45441;BME280;31189;38.790;-77.084;2022-11-20T05:26:13;101513.25;;;3.10;44.47
45441;BME280;31189;38.790;-77.084;2022-11-20T05:28:42;101514.83;;;3.12;43.54
45441;BME280;31189;38.790;-77.084;2022-11-20T05:31:13;101515.88;;;2.79;46.04
45441;BME280;31189;38.790;-77.084;2022-11-20T05:33:46;101523.02;;;2.45;44.97
45441;BME280;31189;38.790;-77.084;2022-11-20T05:36:25;101526.26;;;4.40;43.11
45441;BME280;31189;38.790;-77.084;2022-11-20T05:38:57;101531.50;;;3.37;43.82
45441;BME280;31189;38.790;-77.084;2022-11-20T05:41:32;101531.12;;;4.13;42.60
45441;BME280;31189;38.790;-77.084;2022-11-20T05:44:05;101540.33;;;3.05;43.84
45441;BME280;31189;38.790;-77.084;2022-11-20T05:46:33;101541.49;;;3.76;43.10
45441;BME280;31189;38.790;-77.084;2022-11-20T05:49:01;101541.96;;;2.20;45.15
45441;BME280;31189;38.790;-77.084;2022-11-20T05:51:34;101548.69;;;3.28;44.70
45441;BME280;31189;38.790;-77.084;2022-11-20T05:54:02;101546.49;;;2.47;45.27
45441;BME280;31189;38.790;-77.084;2022-11-20T05:56:30;101543.47;;;2.29;45.16
45441;BME280;31189;38.790;-77.084;2022-11-20T05:59:03;101542.59;;;2.77;44.83
45441;BME280;31189;38.790;-77.084;2022-11-20T06:01:31;101541.84;;;2.83;43.11
45441;BME280;31189;38.790;-77.084;2022-11-20T06:03:59;101552.53;;;2.02;44.93
45441;BME280;31189;38.790;-77.084;2022-11-20T06:06:26;101560.73;;;2.33;45.71
45441;BME280;31189;38.790;-77.084;2022-11-20T06:08:55;101559.27;;;2.85;43.79
45441;BME280;31189;38.790;-77.084;2022-11-20T06:11:23;101568.85;;;3.06;42.20
45441;BME280;31189;38.790;-77.084;2022-11-20T06:13:50;101573.79;;;3.12;41.71
45441;BME280;31189;38.790;-77.084;2022-11-20T06:16:19;101573.52;;;3.57;42.30
45441;BME280;31189;38.790;-77.084;2022-11-20T06:18:47;101574.84;;;1.17;46.36
45441;BME280;31189;38.790;-77.084;2022-11-20T06:21:18;101581.88;;;3.07;44.83
45441;BME280;31189;38.790;-77.084;2022-11-20T06:23:46;101588.82;;;3.45;44.22
45441;BME280;31189;38.790;-77.084;2022-11-20T06:26:16;101592.95;;;3.02;44.87
45441;BME280;31189;38.790;-77.084;2022-11-20T06:28:45;101595.52;;;3.01;45.17
45441;BME280;31189;38.790;-77.084;2022-11-20T06:31:15;101607.63;;;3.60;43.04
45441;BME280;31189;38.790;-77.084;2022-11-20T06:33:43;101614.02;;;3.68;42.27
45441;BME280;31189;38.790;-77.084;2022-11-20T06:36:13;101622.71;;;3.50;42.44
45441;BME280;31189;38.790;-77.084;2022-11-20T06:38:42;101622.82;;;2.45;44.71
45441;BME280;31189;38.790;-77.084;2022-11-20T06:41:13;101622.90;;;2.43;43.84
45441;BME280;31189;38.790;-77.084;2022-11-20T06:43:42;101623.49;;;1.65;44.37
45441;BME280;31189;38.790;-77.084;2022-11-20T06:46:12;101623.52;;;0.84;40.22
45441;BME280;31189;38.790;-77.084;2022-11-20T06:48:40;101624.39;;;1.52;37.90
45441;BME280;31189;38.790;-77.084;2022-11-20T06:51:08;101624.22;;;2.30;38.98
45441;BME280;31189;38.790;-77.084;2022-11-20T06:53:37;101624.58;;;-0.35;37.37
45441;BME280;31189;38.790;-77.084;2022-11-20T06:56:06;101621.77;;;1.77;35.54
45441;BME280;31189;38.790;-77.084;2022-11-20T06:58:35;101622.23;;;1.79;35.37
45441;BME280;31189;38.790;-77.084;2022-11-20T07:01:05;101624.38;;;2.08;35.10
45441;BME280;31189;38.790;-77.084;2022-11-20T07:03:34;101627.54;;;2.66;36.34
45441;BME280;31189;38.790;-77.084;2022-11-20T07:06:02;101625.86;;;2.41;33.96
45441;BME280;31189;38.790;-77.084;2022-11-20T07:08:31;101627.81;;;1.60;32.09
45441;BME280;31189;38.790;-77.084;2022-11-20T07:10:59;101635.86;;;1.60;33.03
45441;BME280;31189;38.790;-77.084;2022-11-20T07:13:28;101633.82;;;0.66;33.38
45441;BME280;31189;38.790;-77.084;2022-11-20T07:16:00;101632.05;;;2.21;30.70
45441;BME280;31189;38.790;-77.084;2022-11-20T07:18:29;101636.90;;;1.97;30.56
45441;BME280;31189;38.790;-77.084;2022-11-20T07:21:01;101640.71;;;2.55;30.49
45441;BME280;31189;38.790;-77.084;2022-11-20T07:23:28;101640.60;;;2.77;30.06
45441;BME280;31189;38.790;-77.084;2022-11-20T07:25:57;101643.76;;;2.65;28.43
45441;BME280;31189;38.790;-77.084;2022-11-20T07:28:25;101650.85;;;2.89;28.38
45441;BME280;31189;38.790;-77.084;2022-11-20T07:30:53;101653.95;;;2.96;27.83
45441;BME280;31189;38.790;-77.084;2022-11-20T07:33:21;101654.09;;;3.82;27.43
45441;BME280;31189;38.790;-77.084;2022-11-20T07:35:49;101655.95;;;3.07;26.58
45441;BME280;31189;38.790;-77.084;2022-11-20T07:38:16;101663.96;;;3.62;26.69
45441;BME280;31189;38.790;-77.084;2022-11-20T07:40:44;101667.79;;;4.10;26.87
45441;BME280;31189;38.790;-77.084;2022-11-20T07:43:11;101668.67;;;4.49;25.75
45441;BME280;31189;38.790;-77.084;2022-11-20T07:45:39;101669.31;;;4.61;26.10
45441;BME280;31189;38.790;-77.084;2022-11-20T07:48:06;101668.15;;;4.26;27.15
45441;BME280;31189;38.790;-77.084;2022-11-20T07:50:33;101672.75;;;4.55;26.02
45441;BME280;31189;38.790;-77.084;2022-11-20T07:53:02;101671.83;;;3.97;26.33
45441;BME280;31189;38.790;-77.084;2022-11-20T07:55:31;101669.90;;;3.87;27.03
45441;BME280;31189;38.790;-77.084;2022-11-20T07:57:58;101664.25;;;4.92;26.30
45441;BME280;31189;38.790;-77.084;2022-11-20T08:00:27;101667.54;;;3.86;26.90
45441;BME280;31189;38.790;-77.084;2022-11-20T08:02:55;101667.23;;;5.15;25.96
45441;BME280;31189;38.790;-77.084;2022-11-20T08:05:23;101671.62;;;4.04;26.87
45441;BME280;31189;38.790;-77.084;2022-11-20T08:07:51;101673.90;;;3.67;26.13
45441;BME280;31189;38.790;-77.084;2022-11-20T08:10:19;101681.26;;;2.56;25.92
45441;BME280;31189;38.790;-77.084;2022-11-20T08:12:47;101685.67;;;1.14;27.22
45441;BME280;31189;38.790;-77.084;2022-11-20T08:15:16;101690.53;;;2.73;26.72
45441;BME280;31189;38.790;-77.084;2022-11-20T08:17:44;101698.84;;;2.96;26.12
45441;BME280;31189;38.790;-77.084;2022-11-20T08:20:12;101704.99;;;3.66;26.60
45441;BME280;31189;38.790;-77.084;2022-11-20T08:22:40;101705.73;;;3.69;27.07
45441;BME280;31189;38.790;-77.084;2022-11-20T08:25:08;101709.15;;;3.52;26.45
45441;BME280;31189;38.790;-77.084;2022-11-20T08:27:35;101713.00;;;4.03;26.30
45441;BME280;31189;38.790;-77.084;2022-11-20T08:30:04;101714.79;;;1.70;26.91
45441;BME280;31189;38.790;-77.084;2022-11-20T08:32:31;101723.97;;;1.29;27.01
45441;BME280;31189;38.790;-77.084;2022-11-20T08:34:59;101734.25;;;2.21;26.26
45441;BME280;31189;38.790;-77.084;2022-11-20T08:37:26;101740.60;;;1.31;27.42
45441;BME280;31189;38.790;-77.084;2022-11-20T08:39:54;101742.38;;;1.30;27.38
45441;BME280;31189;38.790;-77.084;2022-11-20T08:42:21;101743.45;;;1.00;27.60
45441;BME280;31189;38.790;-77.084;2022-11-20T08:44:48;101745.01;;;1.54;28.95
45441;BME280;31189;38.790;-77.084;2022-11-20T08:47:16;101749.49;;;0.03;27.93
45441;BME280;31189;38.790;-77.084;2022-11-20T08:49:43;101749.78;;;0.57;28.28
45441;BME280;31189;38.790;-77.084;2022-11-20T08:52:11;101750.28;;;0.73;28.04
45441;BME280;31189;38.790;-77.084;2022-11-20T08:54:38;101746.19;;;1.89;27.38
45441;BME280;31189;38.790;-77.084;2022-11-20T08:57:06;101752.40;;;0.22;28.23
45441;BME280;31189;38.790;-77.084;2022-11-20T08:59:33;101753.65;;;1.01;28.13
45441;BME280;31189;38.790;-77.084;2022-11-20T09:02:01;101767.17;;;0.76;29.07
45441;BME280;31189;38.790;-77.084;2022-11-20T09:04:29;101768.50;;;1.36;29.91
45441;BME280;31189;38.790;-77.084;2022-11-20T09:06:57;101782.41;;;1.38;27.50
45441;BME280;31189;38.790;-77.084;2022-11-20T09:09:27;101778.69;;;0.54;27.39
45441;BME280;31189;38.790;-77.084;2022-11-20T09:11:55;101798.38;;;0.87;29.05
45441;BME280;31189;38.790;-77.084;2022-11-20T09:14:22;101786.36;;;1.21;28.22
45441;BME280;31189;38.790;-77.084;2022-11-20T09:16:50;101796.42;;;1.21;27.84
45441;BME280;31189;38.790;-77.084;2022-11-20T09:19:17;101803.48;;;0.12;28.09
45441;BME280;31189;38.790;-77.084;2022-11-20T09:21:45;101804.40;;;1.12;26.98
45441;BME280;31189;38.790;-77.084;2022-11-20T09:24:12;101808.90;;;0.09;27.78
45441;BME280;31189;38.790;-77.084;2022-11-20T09:26:40;101807.27;;;-0.84;29.05
45441;BME280;31189;38.790;-77.084;2022-11-20T09:29:08;101813.66;;;0.71;27.57
45441;BME280;31189;38.790;-77.084;2022-11-20T09:31:36;101810.98;;;0.36;27.32
45441;BME280;31189;38.790;-77.084;2022-11-20T09:34:04;101812.71;;;-0.41;27.59
45441;BME280;31189;38.790;-77.084;2022-11-20T09:36:32;101815.67;;;-0.35;27.73
45441;BME280;31189;38.790;-77.084;2022-11-20T09:38:59;101827.64;;;-0.19;27.19
45441;BME280;31189;38.790;-77.084;2022-11-20T09:41:42;101822.69;;;0.14;27.63
45441;BME280;31189;38.790;-77.084;2022-11-20T09:44:24;101839.67;;;1.06;27.09
45441;BME280;31189;38.790;-77.084;2022-11-20T09:46:59;101838.39;;;1.60;26.58
45441;BME280;31189;38.790;-77.084;2022-11-20T09:49:36;101844.59;;;2.01;27.96
45441;BME280;31189;38.790;-77.084;2022-11-20T09:52:15;101837.47;;;0.10;27.06
45441;BME280;31189;38.790;-77.084;2022-11-20T09:54:49;101840.00;;;0.51;27.42
45441;BME280;31189;38.790;-77.084;2022-11-20T09:57:21;101843.77;;;-1.27;28.68
45441;BME280;31189;38.790;-77.084;2022-11-20T09:59:53;101848.07;;;1.02;28.38
45441;BME280;31189;38.790;-77.084;2022-11-20T10:02:28;101850.03;;;-0.06;27.72
45441;BME280;31189;38.790;-77.084;2022-11-20T10:04:59;101847.10;;;-0.49;28.49
45441;BME280;31189;38.790;-77.084;2022-11-20T10:07:32;101859.90;;;0.11;29.10
45441;BME280;31189;38.790;-77.084;2022-11-20T10:10:02;101865.32;;;0.91;28.06
45441;BME280;31189;38.790;-77.084;2022-11-20T10:12:46;101866.26;;;-0.90;27.35
45441;BME280;31189;38.790;-77.084;2022-11-20T10:15:30;101876.28;;;1.60;27.83
45441;BME280;31189;38.790;-77.084;2022-11-20T10:18:13;101878.13;;;1.24;27.36
45441;BME280;31189;38.790;-77.084;2022-11-20T10:20:52;101880.42;;;1.40;27.43
45441;BME280;31189;38.790;-77.084;2022-11-20T10:23:39;101880.18;;;-0.17;29.05
45441;BME280;31189;38.790;-77.084;2022-11-20T10:26:20;101886.36;;;0.13;27.14
45441;BME280;31189;38.790;-77.084;2022-11-20T10:28:58;101887.97;;;1.68;26.78
45441;BME280;31189;38.790;-77.084;2022-11-20T10:31:34;101892.99;;;1.59;26.49
45441;BME280;31189;38.790;-77.084;2022-11-20T10:34:06;101894.57;;;2.08;26.66
45441;BME280;31189;38.790;-77.084;2022-11-20T10:36:46;101899.65;;;1.48;26.89
45441;BME280;31189;38.790;-77.084;2022-11-20T10:39:21;101905.80;;;1.87;25.73
45441;BME280;31189;38.790;-77.084;2022-11-20T10:41:52;101909.36;;;1.78;26.92
45441;BME280;31189;38.790;-77.084;2022-11-20T10:44:21;101916.01;;;1.89;26.77
45441;BME280;31189;38.790;-77.084;2022-11-20T10:46:50;101913.06;;;1.96;27.10
45441;BME280;31189;38.790;-77.084;2022-11-20T10:49:19;101914.72;;;1.14;27.47
45441;BME280;31189;38.790;-77.084;2022-11-20T10:52:02;101914.02;;;0.26;27.88
45441;BME280;31189;38.790;-77.084;2022-11-20T10:54:38;101919.55;;;0.69;27.65
45441;BME280;31189;38.790;-77.084;2022-11-20T10:57:17;101920.48;;;1.01;27.90
45441;BME280;31189;38.790;-77.084;2022-11-20T11:00:07;101921.99;;;-0.07;28.25
45441;BME280;31189;38.790;-77.084;2022-11-20T11:02:42;101923.06;;;1.48;26.63
45441;BME280;31189;38.790;-77.084;2022-11-20T11:05:20;101923.47;;;0.88;28.13
45441;BME280;31189;38.790;-77.084;2022-11-20T11:07:53;101927.42;;;0.26;27.70
45441;BME280;31189;38.790;-77.084;2022-11-20T11:10:26;101935.16;;;-0.40;28.48
45441;BME280;31189;38.790;-77.084;2022-11-20T11:12:56;101935.74;;;0.18;29.24
45441;BME280;31189;38.790;-77.084;2022-11-20T11:15:27;101951.67;;;0.45;29.76
45441;BME280;31189;38.790;-77.084;2022-11-20T11:17:56;101951.69;;;-0.48;28.40
45441;BME280;31189;38.790;-77.084;2022-11-20T11:20:25;101958.19;;;1.13;28.24
45441;BME280;31189;38.790;-77.084;2022-11-20T11:22:54;101967.23;;;0.78;27.71
45441;BME280;31189;38.790;-77.084;2022-11-20T11:25:28;101974.08;;;-1.14;28.10
45441;BME280;31189;38.790;-77.084;2022-11-20T11:27:59;101982.95;;;-0.46;28.26
45441;BME280;31189;38.790;-77.084;2022-11-20T11:30:29;101995.81;;;0.63;28.25
45441;BME280;31189;38.790;-77.084;2022-11-20T11:33:06;101994.33;;;1.12;26.84
45441;BME280;31189;38.790;-77.084;2022-11-20T11:35:44;101996.54;;;1.04;27.41
45441;BME280;31189;38.790;-77.084;2022-11-20T11:38:15;102014.43;;;0.62;27.30
45441;BME280;31189;38.790;-77.084;2022-11-20T11:40:44;102029.85;;;-1.03;28.74
45441;BME280;31189;38.790;-77.084;2022-11-20T11:43:19;102028.96;;;0.21;28.52
45441;BME280;31189;38.790;-77.084;2022-11-20T11:45:53;102033.88;;;0.56;29.12
45441;BME280;31189;38.790;-77.084;2022-11-20T11:48:22;102046.31;;;0.18;28.93
45441;BME280;31189;38.790;-77.084;2022-11-20T11:50:50;102053.40;;;-0.77;31.76
45441;BME280;31189;38.790;-77.084;2022-11-20T11:53:20;102056.53;;;-1.45;31.95
45441;BME280;31189;38.790;-77.084;2022-11-20T11:55:54;102056.31;;;-1.34;32.96
45441;BME280;31189;38.790;-77.084;2022-11-20T11:58:39;102061.92;;;-1.17;33.13
45441;BME280;31189;38.790;-77.084;2022-11-20T12:01:21;102063.21;;;-1.29;34.83
45441;BME280;31189;38.790;-77.084;2022-11-20T12:03:58;102078.06;;;-1.13;34.66
45441;BME280;31189;38.790;-77.084;2022-11-20T12:06:28;102085.78;;;-1.95;35.46
45441;BME280;31189;38.790;-77.084;2022-11-20T12:09:02;102074.72;;;-2.40;37.07
45441;BME280;31189;38.790;-77.084;2022-11-20T12:11:37;102082.76;;;-1.93;36.40
45441;BME280;31189;38.790;-77.084;2022-11-20T12:14:14;102086.95;;;-1.61;35.40
45441;BME280;31189;38.790;-77.084;2022-11-20T12:16:44;102101.21;;;-1.41;34.53
45441;BME280;31189;38.790;-77.084;2022-11-20T12:19:13;102110.23;;;-1.31;33.35
45441;BME280;31189;38.790;-77.084;2022-11-20T12:21:51;102119.65;;;-3.24;35.31
45441;BME280;31189;38.790;-77.084;2022-11-20T12:24:37;102143.77;;;-0.85;35.23
45441;BME280;31189;38.790;-77.084;2022-11-20T12:27:27;102153.84;;;-1.68;35.09
45441;BME280;31189;38.790;-77.084;2022-11-20T12:30:03;102161.08;;;-1.56;33.98
45441;BME280;31189;38.790;-77.084;2022-11-20T12:33:40;102171.77;;;0.64;32.53
45441;BME280;31189;38.790;-77.084;2022-11-20T12:36:23;102180.88;;;-1.55;32.93
45441;BME280;31189;38.790;-77.084;2022-11-20T12:39:13;102185.32;;;-2.81;32.66
45441;BME280;31189;38.790;-77.084;2022-11-20T12:41:57;102166.69;;;-2.58;32.88
45441;BME280;31189;38.790;-77.084;2022-11-20T12:44:44;102184.07;;;-1.75;31.77
45441;BME280;31189;38.790;-77.084;2022-11-20T12:47:22;102173.16;;;-2.29;32.27
45441;BME280;31189;38.790;-77.084;2022-11-20T12:49:56;102196.03;;;-0.99;32.39
45441;BME280;31189;38.790;-77.084;2022-11-20T12:52:38;102213.05;;;-1.69;31.20
45441;BME280;31189;38.790;-77.084;2022-11-20T12:55:25;102207.93;;;-3.25;32.33
45441;BME280;31189;38.790;-77.084;2022-11-20T12:57:58;102222.02;;;-2.47;31.17
45441;BME280;31189;38.790;-77.084;2022-11-20T13:00:32;102234.66;;;-1.26;30.39